createdAt,value
2018-09-15T00:01:41.581Z,11.88
2018-09-15T00:04:13.920Z,11.48
2018-09-15T00:06:46.249Z,12.13
2018-09-15T00:09:18.605Z,11.80
2018-09-15T00:11:50.965Z,11.05
2018-09-15T00:14:23.272Z,12.58
2018-09-15T00:16:55.579Z,11.60
2018-09-15T00:19:27.934Z,10.53
2018-09-15T00:22:00.277Z,11.97
2018-09-15T00:24:32.561Z,11.65
2018-09-15T00:27:04.901Z,11.18
2018-09-15T00:29:37.195Z,10.93
2018-09-15T00:32:09.482Z,13.00
2018-09-15T00:34:41.778Z,10.88
2018-09-15T00:37:14.070Z,11.95
2018-09-15T00:39:46.373Z,12.40
2018-09-15T00:42:18.666Z,12.03
2018-09-15T00:44:51.140Z,12.10
2018-09-15T00:47:23.410Z,11.93
2018-09-15T00:49:55.748Z,12.00
2018-09-15T00:52:28.019Z,11.97
2018-09-15T00:55:00.360Z,12.15
2018-09-15T00:57:32.645Z,10.75
2018-09-15T01:00:06.257Z,10.60
2018-09-15T01:02:38.520Z,9.65
2018-09-15T01:05:10.838Z,11.43
2018-09-15T01:07:43.209Z,12.05
2018-09-15T01:10:15.542Z,9.20
2018-09-15T01:12:47.828Z,10.90
2018-09-15T01:15:20.089Z,11.20
2018-09-15T01:17:52.368Z,12.90
2018-09-15T01:20:24.665Z,11.43
2018-09-15T01:22:56.943Z,9.88
2018-09-15T01:25:29.208Z,12.10
2018-09-15T01:28:01.473Z,13.25
2018-09-15T01:30:33.786Z,11.38
2018-09-15T01:33:06.473Z,11.30
2018-09-15T01:35:38.738Z,12.25
2018-09-15T01:38:11.013Z,11.48
2018-09-15T01:40:43.244Z,12.60
2018-09-15T01:43:15.500Z,12.95
2018-09-15T01:45:47.765Z,13.18
2018-09-15T01:48:20.041Z,12.60
2018-09-15T01:50:52.345Z,13.48
2018-09-15T01:53:24.591Z,13.13
2018-09-15T01:55:56.834Z,11.30
2018-09-15T01:58:29.102Z,13.88
2018-09-15T02:01:01.326Z,14.58
2018-09-15T02:03:33.609Z,13.05
2018-09-15T02:06:05.933Z,13.62
2018-09-15T02:08:38.235Z,12.80
2018-09-15T02:11:10.470Z,13.30
2018-09-15T02:13:42.768Z,14.58
2018-09-15T02:16:15.077Z,13.50
2018-09-15T02:18:47.336Z,10.68
2018-09-15T02:21:19.566Z,14.15
2018-09-15T02:23:51.836Z,12.80
2018-09-15T02:26:24.102Z,12.80
2018-09-15T02:28:56.431Z,14.20
2018-09-15T02:31:28.650Z,13.58
2018-09-15T02:34:00.897Z,15.20
2018-09-15T02:36:33.261Z,13.38
2018-09-15T02:39:06.701Z,16.10
2018-09-15T02:41:38.948Z,15.80
2018-09-15T02:44:11.210Z,15.28
2018-09-15T02:46:43.496Z,15.45
2018-09-15T02:49:15.713Z,14.60
2018-09-15T02:51:47.999Z,14.18
2018-09-15T02:54:20.257Z,14.70
2018-09-15T02:56:52.520Z,14.90
2018-09-15T02:59:24.846Z,14.98
2018-09-15T03:01:57.101Z,15.95
2018-09-15T03:04:29.376Z,15.68
2018-09-15T03:07:01.665Z,13.60
2018-09-15T03:09:33.897Z,15.28
2018-09-15T03:12:06.537Z,16.30
2018-09-15T03:14:38.768Z,14.50
2018-09-15T03:17:11.046Z,14.13
2018-09-15T03:19:43.353Z,17.12
2018-09-15T03:22:15.695Z,13.70
2018-09-15T03:24:47.951Z,13.28
2018-09-15T03:27:20.273Z,15.75
2018-09-15T03:29:52.536Z,14.10
2018-09-15T03:32:24.828Z,15.25
2018-09-15T03:34:57.088Z,14.50
2018-09-15T03:37:29.368Z,14.45
2018-09-15T03:40:01.684Z,13.85
2018-09-15T03:42:33.937Z,14.15
2018-09-15T03:45:06.226Z,14.90
2018-09-15T03:47:38.606Z,14.93
2018-09-15T03:50:10.861Z,16.12
2018-09-15T03:52:43.180Z,14.50
2018-09-15T03:55:15.428Z,14.40
2018-09-15T03:57:47.726Z,15.43
2018-09-15T04:00:19.992Z,16.40
2018-09-15T04:02:52.245Z,15.35
2018-09-15T04:05:24.544Z,13.03
2018-09-15T04:07:56.859Z,15.55
2018-09-15T04:10:29.125Z,14.13
2018-09-15T04:13:01.412Z,14.00
2018-09-15T04:15:33.641Z,14.00
2018-09-15T04:18:05.952Z,13.48
2018-09-15T04:20:38.181Z,12.98
2018-09-15T04:23:10.420Z,15.30
2018-09-15T04:25:43.139Z,14.18
2018-09-15T04:28:15.412Z,14.58
2018-09-15T04:30:47.660Z,12.60
2018-09-15T04:33:19.914Z,15.23
2018-09-15T04:35:52.213Z,13.43
2018-09-15T04:38:24.436Z,13.85
2018-09-15T04:40:56.684Z,13.05
2018-09-15T04:43:28.956Z,15.58
2018-09-15T04:46:01.220Z,13.43
2018-09-15T04:48:33.469Z,14.60
2018-09-15T04:51:05.792Z,14.38
2018-09-15T04:53:38.073Z,14.93
2018-09-15T04:56:10.354Z,14.30
2018-09-15T04:58:42.887Z,13.08
2018-09-15T05:01:15.086Z,14.03
2018-09-15T05:03:47.370Z,13.65
2018-09-15T05:06:19.752Z,15.58
2018-09-15T05:08:52.011Z,13.35
2018-09-15T05:11:24.304Z,13.75
2018-09-15T05:13:56.561Z,14.70
2018-09-15T05:16:28.815Z,12.35
2018-09-15T05:19:01.122Z,13.30
2018-09-15T05:21:33.405Z,14.65
2018-09-15T05:24:05.851Z,13.58
2018-09-15T05:26:38.089Z,12.98
2018-09-15T05:29:10.393Z,12.47
2018-09-15T05:31:42.781Z,13.85
2018-09-15T05:34:15.018Z,13.83
2018-09-15T05:36:47.257Z,14.10
2018-09-15T05:39:19.553Z,13.83
2018-09-15T05:41:51.856Z,13.43
2018-09-15T05:44:24.161Z,14.07
2018-09-15T05:46:56.444Z,13.75
2018-09-15T05:49:28.750Z,12.05
2018-09-15T05:52:01.028Z,13.48
2018-09-15T05:54:33.333Z,12.25
2018-09-15T05:57:05.625Z,13.65
2018-09-15T05:59:37.933Z,13.08
2018-09-15T06:02:10.164Z,11.73
2018-09-15T06:04:42.488Z,11.48
2018-09-15T06:07:14.793Z,13.65
2018-09-15T06:09:47.053Z,14.85
2018-09-15T06:12:19.351Z,12.23
2018-09-15T06:14:51.616Z,13.43
2018-09-15T06:17:23.922Z,12.75
2018-09-15T06:19:56.193Z,14.03
2018-09-15T06:22:28.554Z,13.55
2018-09-15T06:25:00.852Z,14.23
2018-09-15T06:27:33.186Z,12.95
2018-09-15T06:30:06.264Z,12.63
2018-09-15T06:32:38.598Z,14.07
2018-09-15T06:35:10.860Z,11.80
2018-09-15T06:37:43.297Z,12.65
2018-09-15T06:40:15.628Z,13.70
2018-09-15T06:42:47.903Z,12.88
2018-09-15T06:45:20.182Z,12.00
2018-09-15T06:47:52.457Z,13.68
2018-09-15T06:50:24.785Z,13.43
2018-09-15T06:52:57.118Z,12.20
2018-09-15T06:55:29.519Z,13.48
2018-09-15T06:58:01.766Z,11.97
2018-09-15T07:00:34.068Z,12.33
2018-09-15T07:03:06.385Z,12.28
2018-09-15T07:05:38.691Z,11.97
2018-09-15T07:08:11.038Z,11.12
2018-09-15T07:10:43.353Z,12.18
2018-09-15T07:13:15.646Z,12.18
2018-09-15T07:15:48.000Z,12.53
2018-09-15T07:18:20.299Z,11.10
2018-09-15T07:20:52.727Z,12.88
2018-09-15T07:23:25.754Z,12.00
2018-09-15T07:25:58.193Z,12.20
2018-09-15T07:28:30.457Z,12.55
2018-09-15T07:31:02.813Z,13.18
2018-09-15T07:33:35.064Z,12.85
2018-09-15T07:36:07.413Z,12.33
2018-09-15T07:38:39.748Z,13.78
2018-09-15T07:41:12.134Z,12.55
2018-09-15T07:43:44.424Z,11.30
2018-09-15T07:46:16.740Z,11.63
2018-09-15T07:48:49.025Z,12.00
2018-09-15T07:51:21.389Z,11.75
2018-09-15T07:53:53.746Z,12.73
2018-09-15T07:56:26.105Z,11.15
2018-09-15T07:58:58.388Z,11.33
2018-09-15T08:01:30.770Z,11.80
2018-09-15T08:04:03.081Z,12.75
2018-09-15T08:06:35.450Z,12.40
2018-09-15T08:09:08.000Z,12.82
2018-09-15T08:11:40.389Z,12.07
2018-09-15T08:14:12.654Z,12.70
2018-09-15T08:16:44.998Z,12.05
2018-09-15T08:19:17.296Z,9.60
2018-09-15T08:21:49.674Z,13.20
2018-09-15T08:24:21.957Z,12.13
2018-09-15T08:26:54.261Z,11.88
2018-09-15T08:29:26.566Z,12.03
2018-09-15T08:31:58.966Z,12.45
2018-09-15T08:34:31.304Z,12.63
2018-09-15T08:37:03.609Z,10.95
2018-09-15T08:39:36.021Z,11.97
2018-09-15T08:42:08.314Z,12.05
2018-09-15T08:44:40.856Z,11.03
2018-09-15T08:47:13.177Z,9.80
2018-09-15T08:49:45.505Z,8.15
2018-09-15T08:52:17.819Z,10.68
2018-09-15T08:54:50.137Z,10.63
2018-09-15T08:57:22.478Z,9.90
2018-09-15T08:59:54.844Z,11.57
2018-09-15T09:02:27.153Z,10.45
2018-09-15T09:04:59.565Z,8.58
2018-09-15T09:07:31.876Z,9.70
2018-09-15T09:10:04.280Z,9.50
2018-09-15T09:12:36.592Z,9.05
2018-09-15T09:15:09.018Z,7.05
2018-09-15T09:17:41.348Z,8.23
2018-09-15T09:20:13.735Z,8.38
2018-09-15T09:22:46.237Z,7.70
2018-09-15T09:25:18.606Z,6.65
2018-09-15T09:27:50.913Z,10.45
2018-09-15T09:30:23.377Z,10.30
2018-09-15T09:32:55.719Z,7.25
2018-09-15T09:35:28.091Z,6.85
2018-09-15T09:38:00.432Z,7.08
2018-09-15T09:40:32.845Z,6.30
2018-09-15T09:43:05.189Z,6.55
2018-09-15T09:45:37.595Z,7.75
2018-09-15T09:48:10.002Z,5.70
2018-09-15T09:50:42.588Z,6.95
2018-09-15T09:53:14.841Z,8.78
2018-09-15T09:55:47.253Z,8.75
2018-09-15T09:58:19.658Z,7.78
2018-09-15T10:00:57.804Z,7.35
2018-09-15T10:03:30.135Z,7.22
2018-09-15T10:06:02.497Z,7.60
2018-09-15T10:08:34.870Z,6.42
2018-09-15T10:11:07.178Z,5.92
2018-09-15T10:13:39.504Z,7.08
2018-09-15T10:16:11.901Z,7.33
2018-09-15T10:18:44.209Z,6.80
2018-09-15T10:21:16.616Z,6.60
2018-09-15T10:23:48.943Z,6.75
2018-09-15T10:26:21.269Z,6.97
2018-09-15T10:28:53.704Z,5.62
2018-09-15T10:31:26.001Z,5.33
2018-09-15T10:33:58.339Z,5.87
2018-09-15T10:36:30.696Z,5.47
2018-09-15T10:39:04.177Z,5.65
2018-09-15T10:41:36.513Z,5.17
2018-09-15T10:44:08.865Z,6.85
2018-09-15T10:46:41.189Z,6.08
2018-09-15T10:49:13.588Z,6.60
2018-09-15T10:51:45.972Z,5.92
2018-09-15T10:54:18.424Z,7.35
2018-09-15T10:56:50.772Z,4.87
2018-09-15T10:59:23.113Z,5.40
2018-09-15T11:01:55.420Z,5.30
2018-09-15T11:04:27.757Z,5.03
2018-09-15T11:07:00.099Z,4.75
2018-09-15T11:09:32.421Z,4.80
2018-09-15T11:12:04.721Z,4.47
2018-09-15T11:14:37.071Z,5.35
2018-09-15T11:17:09.423Z,5.75
2018-09-15T11:19:41.777Z,5.50
2018-09-15T11:22:14.126Z,4.60
2018-09-15T11:24:46.497Z,4.50
2018-09-15T11:27:18.872Z,4.70
2018-09-15T11:29:51.253Z,5.40
2018-09-15T11:32:23.721Z,6.20
2018-09-15T11:34:56.041Z,5.50
2018-09-15T11:37:28.410Z,5.30
2018-09-15T11:40:00.668Z,5.20
2018-09-15T11:42:33.027Z,5.03
2018-09-15T11:45:05.616Z,4.70
2018-09-15T11:47:38.010Z,4.37
2018-09-15T11:50:10.320Z,5.58
2018-09-15T11:52:42.668Z,4.92
2018-09-15T11:55:15.028Z,4.30
2018-09-15T11:57:47.406Z,4.97
2018-09-15T12:00:23.085Z,5.75
2018-09-15T12:02:55.467Z,5.08
2018-09-15T12:05:27.804Z,4.08
2018-09-15T12:08:00.135Z,5.35
2018-09-15T12:10:32.441Z,5.60
2018-09-15T12:13:04.779Z,4.80
2018-09-15T12:15:37.121Z,6.05
2018-09-15T12:18:09.453Z,5.33
2018-09-15T12:20:42.197Z,4.62
2018-09-15T12:23:14.526Z,5.65
2018-09-15T12:25:46.821Z,5.70
2018-09-15T12:28:19.191Z,5.20
2018-09-15T12:30:51.588Z,5.42
2018-09-15T12:33:24.059Z,4.65
2018-09-15T12:35:56.330Z,4.22
2018-09-15T12:38:28.718Z,5.00
2018-09-15T12:41:01.039Z,6.45
2018-09-15T12:43:33.363Z,4.17
2018-09-15T12:46:05.740Z,4.80
2018-09-15T12:48:38.033Z,4.78
2018-09-15T12:51:10.622Z,4.20
2018-09-15T12:53:43.038Z,4.17
2018-09-15T12:56:15.356Z,4.60
2018-09-15T12:58:47.713Z,3.80
2018-09-15T13:01:20.065Z,4.60
2018-09-15T13:03:52.451Z,4.70
2018-09-15T13:06:24.816Z,4.75
2018-09-15T13:08:57.234Z,4.20
2018-09-15T13:11:30.439Z,4.67
2018-09-15T13:14:02.807Z,4.28
2018-09-15T13:16:35.157Z,4.17
2018-09-15T13:19:13.254Z,4.60
2018-09-15T13:21:45.585Z,4.62
2018-09-15T13:24:17.894Z,3.60
2018-09-15T13:26:50.219Z,5.12
2018-09-15T13:29:22.592Z,4.03
2018-09-15T13:31:54.876Z,3.80
2018-09-15T13:34:27.328Z,5.20
2018-09-15T13:36:59.597Z,3.80
2018-09-15T13:39:31.884Z,4.58
2018-09-15T13:42:11.063Z,5.08
2018-09-15T13:44:43.357Z,4.12
2018-09-15T13:47:15.683Z,4.08
2018-09-15T13:49:47.961Z,4.10
2018-09-15T13:52:20.282Z,4.70
2018-09-15T13:54:52.584Z,4.60
2018-09-15T13:57:24.893Z,3.72
2018-09-15T13:59:57.201Z,4.53
2018-09-15T14:02:29.656Z,4.45
2018-09-15T14:05:01.933Z,4.40
2018-09-15T14:07:34.233Z,3.75
2018-09-15T14:10:07.049Z,4.20
2018-09-15T14:12:39.647Z,3.60
2018-09-15T14:15:11.956Z,5.58
2018-09-15T14:17:44.272Z,4.80
2018-09-15T14:20:16.567Z,4.40
2018-09-15T14:22:48.871Z,4.33
2018-09-15T14:25:21.162Z,3.83
2018-09-15T14:27:53.530Z,4.05
2018-09-15T14:30:25.806Z,3.22
2018-09-15T14:32:58.104Z,4.12
2018-09-15T14:35:30.422Z,3.35
2018-09-15T14:38:02.729Z,3.98
2018-09-15T14:40:35.065Z,3.70
2018-09-15T14:43:07.597Z,3.70
2018-09-15T14:45:39.914Z,3.50
2018-09-15T14:48:12.185Z,3.47
2018-09-15T14:50:44.528Z,3.35
2018-09-15T14:53:16.820Z,3.58
2018-09-15T14:55:49.141Z,3.65
2018-09-15T14:58:21.426Z,4.17
2018-09-15T15:00:53.757Z,3.65
2018-09-15T15:03:26.176Z,3.50
2018-09-15T15:05:58.481Z,4.50
2018-09-15T15:08:30.805Z,15.18
2018-09-15T15:11:03.065Z,4.47
2018-09-15T15:13:35.356Z,3.55
2018-09-15T15:16:07.653Z,3.27
2018-09-15T15:18:39.978Z,4.47
2018-09-15T15:21:12.240Z,3.58
2018-09-15T15:23:44.572Z,3.62
2018-09-15T15:26:16.859Z,3.40
2018-09-15T15:28:49.162Z,3.58
2018-09-15T15:31:21.578Z,3.33
2018-09-15T15:33:53.883Z,3.20
2018-09-15T15:36:26.121Z,3.67
2018-09-15T15:38:58.717Z,5.70
2018-09-15T15:41:31.029Z,4.10
2018-09-15T15:44:03.432Z,3.75
2018-09-15T15:46:35.877Z,3.35
2018-09-15T15:49:08.265Z,3.15
2018-09-15T15:51:40.622Z,3.00
2018-09-15T15:54:13.011Z,3.47
2018-09-15T15:56:45.326Z,3.17
2018-09-15T15:59:18.028Z,5.25
2018-09-15T16:01:50.382Z,3.70
2018-09-15T16:04:22.751Z,2.65
2018-09-15T16:06:55.001Z,2.77
2018-09-15T16:09:27.291Z,3.40
2018-09-15T16:11:59.681Z,3.58
2018-09-15T16:14:31.994Z,3.12
2018-09-15T16:17:04.379Z,3.12
2018-09-15T16:19:36.729Z,3.50
2018-09-15T16:22:09.132Z,4.17
2018-09-15T16:24:41.520Z,4.22
2018-09-15T16:27:13.925Z,3.40
2018-09-15T16:29:46.256Z,3.50
2018-09-15T16:32:18.641Z,3.35
2018-09-15T16:34:50.945Z,3.00
2018-09-15T16:37:23.252Z,3.40
2018-09-15T16:39:55.515Z,3.17
2018-09-15T16:42:27.791Z,2.95
2018-09-15T16:45:00.136Z,3.20
2018-09-15T16:47:32.770Z,2.92
2018-09-15T16:50:05.099Z,4.05
2018-09-15T16:52:37.347Z,3.45
2018-09-15T16:55:09.703Z,2.95
2018-09-15T16:57:42.013Z,2.40
2018-09-15T17:00:14.329Z,2.47
2018-09-15T17:02:46.657Z,2.65
2018-09-15T17:05:18.966Z,3.30
2018-09-15T17:07:51.336Z,2.98
2018-09-15T17:10:23.668Z,3.08
2018-09-15T17:12:55.978Z,2.70
2018-09-15T17:15:28.352Z,3.00
2018-09-15T17:18:00.631Z,2.70
2018-09-15T17:20:32.980Z,3.17
2018-09-15T17:23:05.381Z,2.98
2018-09-15T17:25:37.794Z,3.27
2018-09-15T17:28:10.121Z,3.22
2018-09-15T17:30:42.450Z,3.37
2018-09-15T17:33:14.700Z,3.22
2018-09-15T17:35:47.072Z,3.40
2018-09-15T17:38:19.356Z,3.00
2018-09-15T17:40:51.693Z,3.00
2018-09-15T17:43:23.992Z,4.17
2018-09-15T17:45:56.380Z,3.67
2018-09-15T17:48:28.763Z,4.08
2018-09-15T17:51:01.102Z,3.98
2018-09-15T17:53:33.362Z,3.92
2018-09-15T17:56:05.732Z,3.95
2018-09-15T17:58:38.059Z,3.90
2018-09-15T18:01:10.372Z,4.12
2018-09-15T18:03:42.632Z,3.50
2018-09-15T18:06:14.980Z,4.00
2018-09-15T18:08:47.278Z,3.95
2018-09-15T18:11:19.615Z,4.20
2018-09-15T18:13:51.977Z,4.17
2018-09-15T18:16:24.279Z,4.03
2018-09-15T18:18:56.665Z,4.03
2018-09-15T18:21:28.973Z,3.98
2018-09-15T18:24:01.330Z,3.90
2018-09-15T18:26:38.120Z,5.00
2018-09-15T18:29:10.436Z,4.95
2018-09-15T18:31:42.721Z,5.03
2018-09-15T18:34:15.057Z,5.00
2018-09-15T18:36:47.513Z,4.30
2018-09-15T18:39:19.713Z,4.60
2018-09-15T18:41:53.048Z,5.28
2018-09-15T18:44:25.384Z,5.15
2018-09-15T18:46:57.665Z,4.95
2018-09-15T18:49:30.026Z,4.10
2018-09-15T18:52:02.337Z,4.45
2018-09-15T18:54:34.741Z,4.15
2018-09-15T18:57:07.157Z,5.03
2018-09-15T18:59:39.595Z,5.40
2018-09-15T19:02:11.915Z,5.08
2018-09-15T19:04:44.314Z,4.28
2018-09-15T19:07:16.619Z,4.80
2018-09-15T19:09:48.937Z,5.03
2018-09-15T19:12:21.304Z,5.33
2018-09-15T19:14:53.782Z,4.10
2018-09-15T19:17:26.074Z,5.30
2018-09-15T19:19:58.493Z,4.80
2018-09-15T19:22:30.897Z,5.85
2018-09-15T19:25:03.368Z,5.12
2018-09-15T19:27:35.754Z,5.17
2018-09-15T19:30:08.097Z,5.78
2018-09-15T19:32:40.498Z,5.50
2018-09-15T19:35:12.845Z,5.17
2018-09-15T19:37:45.224Z,5.17
2018-09-15T19:40:17.590Z,6.37
2018-09-15T19:42:50.046Z,5.85
2018-09-15T19:45:22.453Z,6.30
2018-09-15T19:47:54.797Z,6.53
2018-09-15T19:50:27.229Z,5.60
2018-09-15T19:52:59.629Z,6.08
2018-09-15T19:55:31.970Z,5.80
2018-09-15T19:58:04.618Z,6.28
2018-09-15T20:00:37.041Z,6.00
2018-09-15T20:03:09.408Z,6.83
2018-09-15T20:05:41.768Z,5.87
2018-09-15T20:08:14.169Z,5.50
2018-09-15T20:10:46.537Z,5.80
2018-09-15T20:13:18.880Z,5.42
2018-09-15T20:15:50.113Z,5.92
2018-09-15T20:18:21.373Z,5.47
2018-09-15T20:20:52.581Z,5.57
2018-09-15T20:23:24.967Z,5.93
2018-09-15T20:25:57.300Z,6.50
2018-09-15T20:28:29.721Z,6.10
2018-09-15T20:31:02.190Z,6.07
2018-09-15T20:33:34.638Z,7.35
2018-09-15T20:36:07.080Z,6.57
2018-09-15T20:38:39.598Z,5.90
2018-09-15T20:41:12.029Z,5.43
2018-09-15T20:43:44.515Z,5.90
2018-09-15T20:46:16.911Z,7.10
2018-09-15T20:48:49.302Z,7.07
2018-09-15T20:51:21.717Z,6.70
2018-09-15T20:53:54.015Z,6.37
2018-09-15T20:56:26.358Z,7.30
2018-09-15T20:58:58.741Z,5.87
2018-09-15T21:01:31.097Z,6.83
2018-09-15T21:04:03.566Z,6.80
2018-09-15T21:06:35.924Z,7.47
2018-09-15T21:09:09.811Z,6.70
2018-09-15T21:11:42.191Z,8.67
2018-09-15T21:14:14.577Z,6.57
2018-09-15T21:16:46.993Z,7.73
2018-09-15T21:19:19.287Z,6.40
2018-09-15T21:21:51.748Z,7.23
2018-09-15T21:24:24.168Z,7.03
2018-09-15T21:26:56.521Z,6.23
2018-09-15T21:29:28.839Z,6.50
2018-09-15T21:32:01.208Z,7.03
2018-09-15T21:34:33.560Z,7.33
2018-09-15T21:37:06.471Z,6.47
2018-09-15T21:39:38.809Z,7.27
2018-09-15T21:42:11.181Z,7.20
2018-09-15T21:44:43.560Z,6.80
2018-09-15T21:47:15.911Z,7.33
2018-09-15T21:49:48.298Z,6.53
2018-09-15T21:52:20.659Z,7.40
2018-09-15T21:54:53.437Z,7.83
2018-09-15T21:57:25.806Z,7.30
2018-09-15T21:59:58.168Z,8.00
2018-09-15T22:02:31.753Z,8.20
2018-09-15T22:05:04.204Z,7.33
2018-09-15T22:07:36.748Z,6.40
2018-09-15T22:10:09.088Z,6.63
2018-09-15T22:12:41.487Z,6.87
2018-09-15T22:15:20.354Z,7.10
2018-09-15T22:17:53.608Z,7.50
2018-09-15T22:20:26.271Z,7.77
2018-09-15T22:22:58.653Z,7.30
2018-09-15T22:25:30.999Z,7.83
2018-09-15T22:28:03.380Z,7.50
2018-09-15T22:30:35.651Z,7.60
2018-09-15T22:33:08.005Z,7.40
2018-09-15T22:35:40.326Z,7.23
2018-09-15T22:38:12.650Z,6.60
2018-09-15T22:40:44.948Z,5.80
2018-09-15T22:43:17.230Z,7.10
2018-09-15T22:45:49.607Z,7.43
2018-09-15T22:48:21.923Z,8.60
2018-09-15T22:50:54.269Z,7.60
2018-09-15T22:53:26.602Z,8.27
2018-09-15T22:55:58.957Z,6.67
2018-09-15T22:58:31.296Z,9.00
2018-09-15T23:01:03.724Z,8.20
2018-09-15T23:03:36.058Z,7.50
2018-09-15T23:06:08.445Z,8.30
2018-09-15T23:08:40.782Z,9.40
2018-09-15T23:11:13.156Z,8.17
2018-09-15T23:13:45.457Z,8.90
2018-09-15T23:16:17.792Z,9.03
2018-09-15T23:18:50.136Z,9.40
2018-09-15T23:21:22.482Z,8.90
2018-09-15T23:23:54.957Z,9.60
2018-09-15T23:26:27.229Z,9.10
2018-09-15T23:28:59.553Z,8.73
2018-09-15T23:31:31.971Z,9.60
2018-09-15T23:34:04.372Z,10.67
2018-09-15T23:36:36.708Z,10.27
2018-09-15T23:39:09.064Z,9.67
2018-09-15T23:41:41.376Z,8.63
2018-09-15T23:44:13.736Z,9.30
2018-09-15T23:46:46.126Z,9.33
2018-09-15T23:49:18.581Z,9.53
2018-09-15T23:51:50.905Z,8.50
2018-09-15T23:54:23.306Z,8.60
2018-09-15T23:56:55.631Z,8.27
2018-09-15T23:59:28.097Z,8.67
